CheckWX is a tool to help pilots better visualize weather data.  It is not intended as a substitute for an official pre-flight weather briefing.

14:52:34 UTC

VTUV TAF
Roi Et Airport
Thailand
TAF VTUV 231100Z 2312/2412 09008KT 7000 FEW030 TEMPO 2323/2402 VRB15KT 6000 -TSRA FEW018CB SCT025 BKN100 TEMPO 2408/2411 VRB15KT 5000 TSRA FEW018CB SCT025 BKN100

Mar-23@
12:00 UTC

Mar-23 @ 12:00 UTC

Mar-24@
12:00 UTC

Mar-24 @ 12:00 UTC

TAF VTUV 231100Z 2312/2412 09008KT 7000 FEW030
Wind
  • 090° at 8 KTS
Cloud Levels
  • Few at 3,000' AGL

Mar-23@
23:00 UTC

Mar-23 @ 23:00 UTC

Mar-24@
02:00 UTC

Mar-24 @ 02:00 UTC

TEMPO 2323/2402 VRB15KT 6000 -TSRA FEW018CB SCT025 BKN100

Temporary

Temporary Changes expected for less than half the time period

Wind
  • Variable at 15 KTS
Conditions
Light Thunderstorm, Light Rain
Cloud Levels
  • Few at 1,800' AGL
  • Scattered at 2,500' AGL
  • Broken at 10,000' AGL

Mar-24@
08:00 UTC

Mar-24 @ 08:00 UTC

Mar-24@
11:00 UTC

Mar-24 @ 11:00 UTC

TEMPO 2408/2411 VRB15KT 5000 TSRA FEW018CB SCT025 BKN100

Temporary

Temporary Changes expected for less than half the time period

Wind
  • Variable at 15 KTS
Conditions
Thunderstorm, Rain
Cloud Levels
  • Few at 1,800' AGL
  • Scattered at 2,500' AGL
  • Broken at 10,000' AGL